createdAt,value
2019-03-30T00:00:08.770Z,1021.80
2019-03-30T00:01:08.683Z,1021.77
2019-03-30T00:02:08.607Z,1021.84
2019-03-30T00:03:08.520Z,1021.79
2019-03-30T00:04:08.432Z,1021.81
2019-03-30T00:05:08.345Z,1021.77
2019-03-30T00:06:08.273Z,1021.77
2019-03-30T00:07:08.182Z,1021.72
2019-03-30T00:08:08.096Z,1021.72
2019-03-30T00:09:08.007Z,1021.77
2019-03-30T00:10:07.934Z,1021.75
2019-03-30T00:11:07.850Z,1021.73
2019-03-30T00:12:07.761Z,1021.68
2019-03-30T00:13:07.670Z,1021.67
2019-03-30T00:14:07.583Z,1021.67
2019-03-30T00:15:07.508Z,1021.67
2019-03-30T00:16:07.421Z,1021.64
2019-03-30T00:17:07.333Z,1021.63
2019-03-30T00:18:07.246Z,1021.59
2019-03-30T00:19:07.171Z,1021.63
2019-03-30T00:20:07.092Z,1021.57
2019-03-30T00:21:06.996Z,1021.63
2019-03-30T00:22:06.998Z,1021.60
2019-03-30T00:23:06.833Z,1021.61
2019-03-30T00:24:06.747Z,1021.63
2019-03-30T00:25:06.672Z,1021.60
2019-03-30T00:26:06.572Z,1021.56
2019-03-30T00:27:06.485Z,1021.59
2019-03-30T00:28:06.409Z,1021.59
2019-03-30T00:29:06.323Z,1021.59
2019-03-30T00:30:06.234Z,1021.59
2019-03-30T00:31:06.147Z,1021.56
2019-03-30T00:32:06.072Z,1021.56
2019-03-30T00:33:05.984Z,1021.51
2019-03-30T00:34:05.899Z,1021.50
2019-03-30T00:35:05.809Z,1021.51
2019-03-30T00:36:05.724Z,1021.50
2019-03-30T00:37:05.649Z,1021.53
2019-03-30T00:38:05.560Z,1021.50
2019-03-30T00:39:05.473Z,1021.46
2019-03-30T00:40:05.385Z,1021.47
2019-03-30T00:41:05.325Z,1021.45
2019-03-30T00:42:05.227Z,1021.46
2019-03-30T00:43:05.141Z,1021.45
2019-03-30T00:44:05.048Z,1021.39
2019-03-30T00:45:04.962Z,1021.41
2019-03-30T00:46:04.886Z,1021.38
2019-03-30T00:47:04.798Z,1021.41
2019-03-30T00:48:04.711Z,1021.40
2019-03-30T00:49:04.626Z,1021.39
2019-03-30T00:50:04.551Z,1021.33
2019-03-30T00:51:04.461Z,1021.35
2019-03-30T00:52:04.373Z,1021.33
2019-03-30T00:53:04.285Z,1021.37
2019-03-30T00:54:04.211Z,1021.35
2019-03-30T00:55:04.113Z,1021.37
2019-03-30T00:56:04.050Z,1021.39
2019-03-30T00:57:03.952Z,1021.36
2019-03-30T00:58:03.862Z,1021.37
2019-03-30T00:59:03.775Z,1021.33
2019-03-30T01:00:03.700Z,1021.33
2019-03-30T01:01:03.611Z,1021.30
2019-03-30T01:02:03.524Z,1021.35
2019-03-30T01:03:03.437Z,1021.33
2019-03-30T01:04:03.350Z,1021.31
2019-03-30T01:05:03.277Z,1021.29
2019-03-30T01:06:03.203Z,1021.29
2019-03-30T01:07:03.101Z,1021.31
2019-03-30T01:08:03.016Z,1021.28
2019-03-30T01:09:02.937Z,1021.27
2019-03-30T01:10:02.850Z,1021.29
2019-03-30T01:11:02.762Z,1021.31
2019-03-30T01:12:02.677Z,1021.26
2019-03-30T01:13:02.601Z,1021.27
2019-03-30T01:14:02.502Z,1021.26
2019-03-30T01:15:02.430Z,1021.22
2019-03-30T01:16:02.343Z,1021.21
2019-03-30T01:17:02.253Z,1021.26
2019-03-30T01:18:02.164Z,1021.26
2019-03-30T01:19:02.078Z,1021.24
2019-03-30T01:20:03.199Z,1021.21
2019-03-30T01:21:01.914Z,1021.21
2019-03-30T01:22:01.829Z,1021.24
2019-03-30T01:23:01.741Z,1021.25
2019-03-30T01:24:01.665Z,1021.21
2019-03-30T01:25:01.581Z,1021.20
2019-03-30T01:26:01.502Z,1021.20
2019-03-30T01:27:01.405Z,1021.20
2019-03-30T01:28:01.314Z,1021.21
2019-03-30T01:29:01.241Z,1021.21
2019-03-30T01:30:01.154Z,1021.17
2019-03-30T01:31:01.065Z,1021.17
2019-03-30T01:32:00.982Z,1021.16
2019-03-30T01:33:00.909Z,1021.14
2019-03-30T01:34:00.804Z,1021.16
2019-03-30T01:35:00.760Z,1021.17
2019-03-30T01:36:00.640Z,1021.14
2019-03-30T01:37:00.553Z,1021.15
2019-03-30T01:38:00.465Z,1021.16
2019-03-30T01:39:00.391Z,1021.19
2019-03-30T01:40:00.434Z,1021.15
2019-03-30T01:41:00.216Z,1021.16
2019-03-30T01:42:00.134Z,1021.12
2019-03-30T01:43:00.041Z,1021.12
2019-03-30T01:43:59.967Z,1021.11
2019-03-30T01:44:59.879Z,1021.12
2019-03-30T01:45:59.804Z,1021.11
2019-03-30T01:46:59.704Z,1021.12
2019-03-30T01:47:59.617Z,1021.09
2019-03-30T01:48:59.542Z,1021.10
2019-03-30T01:49:59.454Z,1021.09
2019-03-30T01:50:59.367Z,1021.08
2019-03-30T01:51:59.280Z,1021.07
2019-03-30T01:52:59.192Z,1021.03
2019-03-30T01:53:59.108Z,1021.06
2019-03-30T01:54:59.030Z,1021.07
2019-03-30T01:55:58.942Z,1021.07
2019-03-30T01:56:58.855Z,1021.06
2019-03-30T01:57:58.767Z,1021.07
2019-03-30T01:58:58.680Z,1021.04
2019-03-30T01:59:58.606Z,1021.04
2019-03-30T02:00:58.518Z,1021.00
2019-03-30T02:01:58.431Z,1021.05
2019-03-30T02:02:58.342Z,1021.01
2019-03-30T02:03:58.258Z,1021.04
2019-03-30T02:04:58.181Z,1021.03
2019-03-30T02:05:58.093Z,1020.98
2019-03-30T02:06:58.012Z,1021.00
2019-03-30T02:07:57.922Z,1021.03
2019-03-30T02:08:57.831Z,1020.97
2019-03-30T02:09:57.748Z,1021.00
2019-03-30T02:10:57.672Z,1020.97
2019-03-30T02:11:57.582Z,1020.96
2019-03-30T02:12:57.494Z,1020.94
2019-03-30T02:13:57.410Z,1020.98
2019-03-30T02:14:57.320Z,1020.96
2019-03-30T02:15:57.257Z,1020.95
2019-03-30T02:16:57.158Z,1020.91
2019-03-30T02:17:57.070Z,1020.92
2019-03-30T02:18:56.985Z,1020.88
2019-03-30T02:19:56.895Z,1020.88
2019-03-30T02:20:56.820Z,1020.92
2019-03-30T02:21:56.733Z,1020.89
2019-03-30T02:22:56.648Z,1020.85
2019-03-30T02:23:56.559Z,1020.87
2019-03-30T02:24:56.470Z,1020.86
2019-03-30T02:25:56.383Z,1020.83
2019-03-30T02:26:56.310Z,1020.88
2019-03-30T02:27:56.220Z,1020.87
2019-03-30T02:28:56.134Z,1020.84
2019-03-30T02:29:56.058Z,1020.87
2019-03-30T02:30:55.961Z,1020.87
2019-03-30T02:31:55.874Z,1020.83
2019-03-30T02:32:55.796Z,1020.92
2019-03-30T02:33:55.714Z,1020.85
2019-03-30T02:34:55.624Z,1020.82
2019-03-30T02:35:55.536Z,1020.85
2019-03-30T02:36:55.462Z,1020.82
2019-03-30T02:37:55.373Z,1020.84
2019-03-30T02:38:55.287Z,1020.81
2019-03-30T02:39:55.198Z,1020.81
2019-03-30T02:40:55.110Z,1020.81
2019-03-30T02:41:55.027Z,1020.82
2019-03-30T02:42:54.936Z,1020.78
2019-03-30T02:43:54.891Z,1020.79
2019-03-30T02:44:54.772Z,1020.81
2019-03-30T02:45:54.686Z,1020.80
2019-03-30T02:46:54.597Z,1020.78
2019-03-30T02:47:54.512Z,1020.78
2019-03-30T02:48:54.424Z,1020.80
2019-03-30T02:49:54.350Z,1020.77
2019-03-30T02:50:54.263Z,1020.78
2019-03-30T02:51:54.184Z,1020.76
2019-03-30T02:52:54.086Z,1020.77
2019-03-30T02:53:54.000Z,1020.77
2019-03-30T02:54:53.915Z,1020.80
2019-03-30T02:55:53.838Z,1020.79
2019-03-30T02:56:53.750Z,1020.81
2019-03-30T02:57:53.664Z,1020.81
2019-03-30T02:58:53.574Z,1020.77
2019-03-30T02:59:53.487Z,1020.78
2019-03-30T03:00:53.399Z,1020.76
2019-03-30T03:01:53.326Z,1020.76
2019-03-30T03:02:53.237Z,1020.74
2019-03-30T03:03:53.152Z,1020.75
2019-03-30T03:04:53.067Z,1020.76
2019-03-30T03:05:52.976Z,1020.72
2019-03-30T03:06:52.890Z,1020.71
2019-03-30T03:07:52.813Z,1020.68
2019-03-30T03:08:52.739Z,1020.65
2019-03-30T03:09:52.639Z,1020.64
2019-03-30T03:10:52.551Z,1020.61
2019-03-30T03:11:52.464Z,1020.63
2019-03-30T03:12:52.379Z,1020.60
2019-03-30T03:13:52.289Z,1020.62
2019-03-30T03:14:52.221Z,1020.58
2019-03-30T03:15:52.172Z,1020.56
2019-03-30T03:16:52.046Z,1020.55
2019-03-30T03:17:51.962Z,1020.54
2019-03-30T03:18:51.996Z,1020.53
2019-03-30T03:19:51.777Z,1020.55
2019-03-30T03:21:06.494Z,1020.48
2019-03-30T03:21:51.615Z,1020.50
2019-03-30T03:22:51.527Z,1020.49
2019-03-30T03:23:51.443Z,1020.48
2019-03-30T03:24:51.365Z,1020.48
2019-03-30T03:25:51.266Z,1020.43
2019-03-30T03:26:51.195Z,1020.44
2019-03-30T03:27:51.105Z,1020.44
2019-03-30T03:28:51.019Z,1020.43
2019-03-30T03:29:50.942Z,1020.38
2019-03-30T03:30:50.842Z,1020.40
2019-03-30T03:31:50.755Z,1020.45
2019-03-30T03:32:50.679Z,1020.45
2019-03-30T03:33:50.599Z,1020.47
2019-03-30T03:34:50.717Z,1020.45
2019-03-30T03:35:50.417Z,1020.42
2019-03-30T03:36:50.330Z,1020.40
2019-03-30T03:37:50.245Z,1020.42
2019-03-30T03:38:50.154Z,1020.38
2019-03-30T03:39:50.084Z,1020.39
2019-03-30T03:40:50.098Z,1020.33
2019-03-30T03:41:49.906Z,1020.34
2019-03-30T03:42:49.824Z,1020.38
2019-03-30T03:43:49.730Z,1020.34
2019-03-30T03:44:49.643Z,1020.34
2019-03-30T03:45:49.573Z,1020.31
2019-03-30T03:46:49.481Z,1020.34
2019-03-30T03:47:49.393Z,1020.34
2019-03-30T03:48:49.304Z,1020.30
2019-03-30T03:49:49.218Z,1020.29
2019-03-30T03:50:49.143Z,1020.31
2019-03-30T03:51:49.044Z,1020.30
2019-03-30T03:52:48.970Z,1020.34
2019-03-30T03:53:48.883Z,1020.31
2019-03-30T03:54:48.795Z,1020.30
2019-03-30T03:55:48.706Z,1020.28
2019-03-30T03:56:48.618Z,1020.32
2019-03-30T03:57:48.552Z,1020.30
2019-03-30T03:58:48.481Z,1020.29
2019-03-30T03:59:48.381Z,1020.31
2019-03-30T04:00:48.287Z,1020.25
2019-03-30T04:01:48.206Z,1020.27
2019-03-30T04:02:48.107Z,1020.26
2019-03-30T04:03:48.031Z,1020.23
2019-03-30T04:04:47.942Z,1020.19
2019-03-30T04:05:47.863Z,1020.15
2019-03-30T04:06:47.771Z,1020.16
2019-03-30T04:07:47.683Z,1020.11
2019-03-30T04:08:47.598Z,1020.13
2019-03-30T04:09:47.507Z,1020.17
2019-03-30T04:10:47.427Z,1020.14
2019-03-30T04:11:47.334Z,1020.16
2019-03-30T04:12:47.257Z,1020.18
2019-03-30T04:13:47.181Z,1020.16
2019-03-30T04:14:47.087Z,1020.19
2019-03-30T04:15:46.995Z,1020.22
2019-03-30T04:16:46.907Z,1020.21
2019-03-30T04:17:46.823Z,1020.24
2019-03-30T04:18:48.263Z,1020.24
2019-03-30T04:19:46.662Z,1020.22
2019-03-30T04:20:46.572Z,1020.21
2019-03-30T04:21:46.485Z,1020.24
2019-03-30T04:22:46.398Z,1020.23
2019-03-30T04:23:46.324Z,1020.23
2019-03-30T04:24:46.225Z,1020.18
2019-03-30T04:25:46.136Z,1020.21
2019-03-30T04:26:46.064Z,1020.24
2019-03-30T04:27:45.994Z,1020.21
2019-03-30T04:28:45.884Z,1020.16
2019-03-30T04:29:45.797Z,1020.19
2019-03-30T04:30:45.711Z,1020.18
2019-03-30T04:31:45.624Z,1020.14
2019-03-30T04:32:45.535Z,1020.15
2019-03-30T04:33:45.475Z,1020.16
2019-03-30T04:34:45.373Z,1020.13
2019-03-30T04:35:45.310Z,1020.15
2019-03-30T04:36:45.199Z,1020.07
2019-03-30T04:37:45.123Z,1020.11
2019-03-30T04:38:45.029Z,1020.09
2019-03-30T04:39:44.935Z,1020.05
2019-03-30T04:40:44.866Z,1020.05
2019-03-30T04:41:44.773Z,1020.06
2019-03-30T04:42:44.686Z,1020.05
2019-03-30T04:43:44.598Z,1020.13
2019-03-30T04:44:44.511Z,1020.05
2019-03-30T04:45:44.424Z,1020.07
2019-03-30T04:46:44.336Z,1020.05
2019-03-30T04:47:44.261Z,1020.06
2019-03-30T04:48:44.186Z,1020.05
2019-03-30T04:49:44.087Z,1020.03
2019-03-30T04:50:44.003Z,1020.06
2019-03-30T04:51:56.493Z,1020.01
2019-03-30T04:52:43.826Z,1020.02
2019-03-30T04:53:43.742Z,1020.01
2019-03-30T04:54:43.675Z,1020.01
2019-03-30T04:55:43.575Z,1019.98
2019-03-30T04:56:43.487Z,1019.98
2019-03-30T04:57:43.400Z,1019.97
2019-03-30T04:58:43.314Z,1019.98
2019-03-30T04:59:43.228Z,1019.96
2019-03-30T05:00:43.146Z,1019.99
2019-03-30T05:01:43.062Z,1019.97
2019-03-30T05:02:42.976Z,1020.01
2019-03-30T05:03:42.889Z,1019.95
2019-03-30T05:04:42.801Z,1019.90
2019-03-30T05:05:43.240Z,1019.91
2019-03-30T05:06:42.627Z,1019.92
2019-03-30T05:07:42.539Z,1019.95
2019-03-30T05:08:42.464Z,1019.93
2019-03-30T05:09:42.379Z,1019.90
2019-03-30T05:10:42.303Z,1019.90
2019-03-30T05:11:42.201Z,1019.89
2019-03-30T05:12:42.209Z,1019.89
2019-03-30T05:13:42.029Z,1019.90
2019-03-30T05:14:41.939Z,1019.91
2019-03-30T05:15:41.866Z,1019.92
2019-03-30T05:16:41.778Z,1019.93
2019-03-30T05:17:47.629Z,1019.90
2019-03-30T05:18:41.603Z,1019.90
2019-03-30T05:19:41.515Z,1019.92
2019-03-30T05:20:41.429Z,1019.91
2019-03-30T05:21:41.342Z,1019.96
2019-03-30T05:22:41.268Z,1019.97
2019-03-30T05:23:41.186Z,1019.92
2019-03-30T05:24:41.094Z,1019.94
2019-03-30T05:25:41.004Z,1019.96
2019-03-30T05:26:40.918Z,1019.96
2019-03-30T05:27:40.829Z,1019.96
2019-03-30T05:28:40.753Z,1019.92
2019-03-30T05:29:40.666Z,1019.94
2019-03-30T05:30:40.585Z,1019.93
2019-03-30T05:31:40.493Z,1019.91
2019-03-30T05:32:41.881Z,1019.96
2019-03-30T05:33:40.316Z,1019.98
2019-03-30T05:34:40.233Z,1019.96
2019-03-30T05:35:40.155Z,1019.96
2019-03-30T05:36:40.066Z,1019.97
2019-03-30T05:37:39.985Z,1019.91
2019-03-30T05:38:39.892Z,1019.96
2019-03-30T05:39:39.805Z,1019.92
2019-03-30T05:40:39.718Z,1019.93
2019-03-30T05:41:39.642Z,1019.89
2019-03-30T05:42:39.555Z,1019.92
2019-03-30T05:43:39.480Z,1019.89
2019-03-30T05:44:39.380Z,1019.92
2019-03-30T05:45:39.292Z,1019.91
2019-03-30T05:46:39.206Z,1019.87
2019-03-30T05:47:39.131Z,1019.88
2019-03-30T05:48:39.042Z,1019.88
2019-03-30T05:49:38.956Z,1019.90
2019-03-30T05:50:38.868Z,1019.90
2019-03-30T05:51:38.781Z,1019.95
2019-03-30T05:52:38.694Z,1019.97
2019-03-30T05:53:38.618Z,1019.92
2019-03-30T05:54:38.535Z,1019.99
2019-03-30T05:55:38.444Z,1019.92
2019-03-30T05:56:38.356Z,1019.98
2019-03-30T05:57:38.269Z,1019.93
2019-03-30T05:58:38.183Z,1019.95
2019-03-30T05:59:38.112Z,1019.90
2019-03-30T06:00:38.019Z,1019.92
2019-03-30T06:01:37.932Z,1019.92
2019-03-30T06:02:37.845Z,1019.93
2019-03-30T06:03:37.757Z,1019.92
2019-03-30T06:04:37.671Z,1019.95
2019-03-30T06:05:37.595Z,1019.90
2019-03-30T06:06:37.509Z,1019.88
2019-03-30T06:07:37.433Z,1019.85
2019-03-30T06:08:37.333Z,1019.90
2019-03-30T06:09:37.245Z,1019.88
2019-03-30T06:10:38.774Z,1019.84
2019-03-30T06:11:37.083Z,1019.85
2019-03-30T06:12:36.998Z,1019.83
2019-03-30T06:13:36.909Z,1019.80
2019-03-30T06:14:36.821Z,1019.81
2019-03-30T06:15:36.748Z,1019.81
2019-03-30T06:16:36.659Z,1019.80
2019-03-30T06:17:36.571Z,1019.80
2019-03-30T06:18:36.485Z,1019.80
2019-03-30T06:19:36.396Z,1019.80
2019-03-30T06:20:36.322Z,1019.79
2019-03-30T06:21:36.243Z,1019.78
2019-03-30T06:22:40.489Z,1019.77
2019-03-30T06:23:36.065Z,1019.78
2019-03-30T06:24:35.974Z,1019.79
2019-03-30T06:25:35.900Z,1019.79
2019-03-30T06:26:35.811Z,1019.81
2019-03-30T06:27:35.722Z,1019.78
2019-03-30T06:28:35.635Z,1019.76
2019-03-30T06:29:35.560Z,1019.75
2019-03-30T06:30:35.472Z,1019.78
2019-03-30T06:31:35.386Z,1019.74
2019-03-30T06:32:35.298Z,1019.74
2019-03-30T06:33:35.222Z,1019.74
2019-03-30T06:34:35.136Z,1019.73
2019-03-30T06:35:35.048Z,1019.70
2019-03-30T06:36:34.961Z,1019.66
2019-03-30T06:37:34.875Z,1019.69
2019-03-30T06:38:34.799Z,1019.66
2019-03-30T06:39:37.085Z,1019.70
2019-03-30T06:40:34.624Z,1019.73
2019-03-30T06:41:34.552Z,1019.71
2019-03-30T06:42:34.462Z,1019.69
2019-03-30T06:43:34.374Z,1019.70
2019-03-30T06:44:34.300Z,1019.71
2019-03-30T06:45:34.212Z,1019.71
2019-03-30T06:46:34.124Z,1019.71
2019-03-30T06:47:34.040Z,1019.72
2019-03-30T06:48:36.064Z,1019.69
2019-03-30T06:49:33.878Z,1019.65
2019-03-30T06:50:33.789Z,1019.65
2019-03-30T06:51:33.701Z,1019.66
2019-03-30T06:52:33.624Z,1019.61
2019-03-30T06:53:33.539Z,1019.66
2019-03-30T06:54:33.450Z,1019.68
2019-03-30T06:55:33.375Z,1019.69
2019-03-30T06:56:33.289Z,1019.68
2019-03-30T06:57:33.207Z,1019.67
2019-03-30T06:58:33.127Z,1019.64
2019-03-30T06:59:33.038Z,1019.63
2019-03-30T07:00:32.955Z,1019.62
2019-03-30T07:01:32.863Z,1019.63
2019-03-30T07:02:32.797Z,1019.56
2019-03-30T07:03:32.701Z,1019.61
2019-03-30T07:04:32.615Z,1019.61
2019-03-30T07:05:32.545Z,1019.61
2019-03-30T07:06:32.453Z,1019.62
2019-03-30T07:07:32.364Z,1019.63
2019-03-30T07:08:32.290Z,1019.61
2019-03-30T07:09:32.205Z,1019.65
2019-03-30T07:10:32.118Z,1019.62
2019-03-30T07:11:32.043Z,1019.62
2019-03-30T07:12:31.963Z,1019.63
2019-03-30T07:13:31.867Z,1019.63
2019-03-30T07:14:31.791Z,1019.62
2019-03-30T07:15:31.704Z,1019.63
2019-03-30T07:16:31.616Z,1019.64
2019-03-30T07:17:31.541Z,1019.61
2019-03-30T07:18:31.456Z,1019.62
2019-03-30T07:19:31.370Z,1019.64
2019-03-30T07:20:31.296Z,1019.60
2019-03-30T07:21:31.203Z,1019.63
2019-03-30T07:22:31.135Z,1019.64
2019-03-30T07:23:31.041Z,1019.65
2019-03-30T07:24:30.953Z,1019.62
2019-03-30T07:25:30.871Z,1019.64
2019-03-30T07:26:30.793Z,1019.61
2019-03-30T07:27:30.703Z,1019.60
2019-03-30T07:28:30.630Z,1019.59
2019-03-30T07:29:30.546Z,1019.62
2019-03-30T07:30:30.455Z,1019.65
2019-03-30T07:31:30.383Z,1019.73
2019-03-30T07:32:30.293Z,1019.70
2019-03-30T07:33:30.218Z,1019.72
2019-03-30T07:34:30.130Z,1019.72
2019-03-30T07:35:30.055Z,1019.74
2019-03-30T07:36:29.967Z,1019.78
2019-03-30T07:37:29.892Z,1019.78
2019-03-30T07:38:29.805Z,1019.76
2019-03-30T07:39:29.730Z,1019.80
2019-03-30T07:40:29.644Z,1019.80
2019-03-30T07:41:29.568Z,1019.81
2019-03-30T07:42:29.480Z,1019.76
2019-03-30T07:43:29.418Z,1019.80
2019-03-30T07:44:29.320Z,1019.84
2019-03-30T07:45:29.244Z,1019.82
2019-03-30T07:46:29.156Z,1019.82
2019-03-30T07:47:29.081Z,1019.79
2019-03-30T07:48:28.994Z,1019.79
2019-03-30T07:49:28.920Z,1019.81
2019-03-30T07:50:28.847Z,1019.85
2019-03-30T07:51:28.756Z,1019.78
2019-03-30T07:52:28.681Z,1019.82
2019-03-30T07:53:28.600Z,1019.81
2019-03-30T07:54:28.519Z,1019.84
2019-03-30T07:55:28.449Z,1019.81
2019-03-30T07:56:28.369Z,1019.81
2019-03-30T07:57:28.282Z,1019.78
2019-03-30T07:58:28.207Z,1019.82
2019-03-30T07:59:28.121Z,1019.80
2019-03-30T08:00:30.667Z,1019.77
2019-03-30T08:01:27.970Z,1019.80
2019-03-30T08:02:27.884Z,1019.75
2019-03-30T08:03:27.808Z,1019.78
2019-03-30T08:04:28.816Z,1019.79
2019-03-30T08:05:27.658Z,1019.80
2019-03-30T08:06:27.571Z,1019.78
2019-03-30T08:07:27.496Z,1019.80
2019-03-30T08:08:27.421Z,1019.79
2019-03-30T08:09:27.346Z,1019.76
2019-03-30T08:10:27.258Z,1019.79
2019-03-30T08:11:27.187Z,1019.74
2019-03-30T08:12:27.109Z,1019.76
2019-03-30T08:13:27.035Z,1019.75
2019-03-30T08:14:26.958Z,1019.74
2019-03-30T08:15:26.873Z,1019.77
2019-03-30T08:16:26.797Z,1019.78
2019-03-30T08:17:26.711Z,1019.76
2019-03-30T08:18:26.634Z,1019.76
2019-03-30T08:19:26.560Z,1019.73
2019-03-30T08:20:26.487Z,1019.70
2019-03-30T08:21:26.410Z,1019.69
2019-03-30T08:22:26.322Z,1019.69
2019-03-30T08:23:39.516Z,1019.69
2019-03-30T08:24:27.545Z,1019.68
2019-03-30T08:25:26.099Z,1019.67
2019-03-30T08:26:26.013Z,1019.68
2019-03-30T08:27:25.935Z,1019.60
2019-03-30T08:28:25.860Z,1019.64
2019-03-30T08:29:25.786Z,1019.61
2019-03-30T08:30:25.712Z,1019.64
2019-03-30T08:31:25.649Z,1019.61
2019-03-30T08:32:25.550Z,1019.60
2019-03-30T08:33:25.481Z,1019.63
2019-03-30T08:34:25.400Z,1019.66
2019-03-30T08:35:25.331Z,1019.62
2019-03-30T08:36:25.249Z,1019.63
2019-03-30T08:37:25.164Z,1019.63
2019-03-30T08:38:25.087Z,1019.58
2019-03-30T08:39:25.012Z,1019.57
2019-03-30T08:40:24.937Z,1019.59
2019-03-30T08:41:24.862Z,1019.53
2019-03-30T08:42:24.787Z,1019.56
2019-03-30T08:43:24.736Z,1019.58
2019-03-30T08:44:24.637Z,1019.53
2019-03-30T08:45:24.552Z,1019.49
2019-03-30T08:46:24.476Z,1019.55
2019-03-30T08:47:24.403Z,1019.53
2019-03-30T08:48:24.326Z,1019.47
2019-03-30T08:49:24.252Z,1019.48
2019-03-30T08:50:24.176Z,1019.48
2019-03-30T08:51:24.090Z,1019.44
2019-03-30T08:52:24.013Z,1019.48
2019-03-30T08:53:23.938Z,1019.51
2019-03-30T08:54:23.865Z,1019.54
2019-03-30T08:55:23.796Z,1019.52
2019-03-30T08:56:23.713Z,1019.56
2019-03-30T08:57:23.638Z,1019.48
2019-03-30T08:58:23.552Z,1019.48
2019-03-30T08:59:23.477Z,1019.46
2019-03-30T09:00:23.405Z,1019.50
2019-03-30T09:01:23.328Z,1019.43
2019-03-30T09:02:23.261Z,1019.42
2019-03-30T09:03:23.179Z,1019.41
2019-03-30T09:04:23.114Z,1019.39
2019-03-30T09:05:23.018Z,1019.41
2019-03-30T09:06:22.941Z,1019.35
2019-03-30T09:07:22.865Z,1019.35
2019-03-30T09:08:22.790Z,1019.29
2019-03-30T09:09:22.719Z,1019.29
2019-03-30T09:10:22.630Z,1019.31
2019-03-30T09:11:22.559Z,1019.19
2019-03-30T09:12:22.478Z,1019.22
2019-03-30T09:13:22.403Z,1019.17
2019-03-30T09:14:22.333Z,1019.16
2019-03-30T09:15:22.254Z,1019.19
2019-03-30T09:16:22.168Z,1019.18
2019-03-30T09:17:22.092Z,1019.17
2019-03-30T09:18:22.034Z,1019.17
2019-03-30T09:19:21.941Z,1019.11
2019-03-30T09:20:21.857Z,1019.11
2019-03-30T09:21:21.779Z,1019.08
2019-03-30T09:22:21.704Z,1019.07
2019-03-30T09:23:21.631Z,1019.07
2019-03-30T09:24:21.543Z,1019.03
2019-03-30T09:25:21.469Z,1019.02
2019-03-30T09:26:21.392Z,1019.03
2019-03-30T09:27:21.317Z,1019.01
2019-03-30T09:28:21.242Z,1019.00
2019-03-30T09:29:21.156Z,1019.00
2019-03-30T09:30:21.082Z,1018.97
2019-03-30T09:31:21.006Z,1018.95
2019-03-30T09:32:20.932Z,1018.95
2019-03-30T09:33:20.860Z,1018.91
2019-03-30T09:34:20.768Z,1018.89
2019-03-30T09:35:20.692Z,1018.91
2019-03-30T09:36:20.618Z,1018.89
2019-03-30T09:37:20.531Z,1018.84
2019-03-30T09:38:20.460Z,1018.83
2019-03-30T09:39:20.385Z,1018.84
2019-03-30T09:40:20.307Z,1018.84
2019-03-30T09:41:20.233Z,1018.80
2019-03-30T09:42:20.143Z,1018.84
2019-03-30T09:43:20.068Z,1018.83
2019-03-30T09:44:19.993Z,1018.79
2019-03-30T09:45:19.919Z,1018.79
2019-03-30T09:46:19.840Z,1018.80
2019-03-30T09:47:19.757Z,1018.79
2019-03-30T09:48:19.682Z,1018.77
2019-03-30T09:49:19.607Z,1018.75
2019-03-30T09:50:19.520Z,1018.76
2019-03-30T09:51:19.447Z,1018.72
2019-03-30T09:52:19.381Z,1018.77
2019-03-30T09:53:19.308Z,1018.73
2019-03-30T09:54:24.062Z,1018.77
2019-03-30T09:55:19.141Z,1018.74
2019-03-30T09:56:19.060Z,1018.73
2019-03-30T09:57:18.973Z,1018.66
2019-03-30T09:58:18.896Z,1018.71
2019-03-30T09:59:18.822Z,1018.69
2019-03-30T10:00:18.733Z,1018.69
2019-03-30T10:01:18.659Z,1018.63
2019-03-30T10:02:18.585Z,1018.58
2019-03-30T10:03:18.496Z,1018.59
2019-03-30T10:04:18.434Z,1018.56
2019-03-30T10:05:18.345Z,1018.56
2019-03-30T10:06:18.261Z,1018.58
2019-03-30T10:07:18.184Z,1018.59
2019-03-30T10:08:18.110Z,1018.57
2019-03-30T10:09:18.034Z,1018.53
2019-03-30T10:10:17.948Z,1018.53
2019-03-30T10:11:17.875Z,1018.56
2019-03-30T10:12:17.796Z,1018.51
2019-03-30T10:13:17.711Z,1018.50
2019-03-30T10:14:17.623Z,1018.46
2019-03-30T10:15:17.547Z,1018.47
2019-03-30T10:16:17.473Z,1018.45
2019-03-30T10:17:17.386Z,1018.43
2019-03-30T10:18:17.312Z,1018.46
2019-03-30T10:19:17.236Z,1018.45
2019-03-30T10:20:17.152Z,1018.41
2019-03-30T10:21:17.086Z,1018.40
2019-03-30T10:22:16.997Z,1018.41
2019-03-30T10:23:16.915Z,1018.42
2019-03-30T10:24:16.836Z,1018.41
2019-03-30T10:25:16.761Z,1018.41
2019-03-30T10:26:16.675Z,1018.39
2019-03-30T10:27:16.598Z,1018.38
2019-03-30T10:28:16.523Z,1018.38
2019-03-30T10:29:16.439Z,1018.37
2019-03-30T10:30:16.365Z,1018.36
2019-03-30T10:31:16.286Z,1018.33
2019-03-30T10:32:16.200Z,1018.29
2019-03-30T10:33:16.124Z,1018.28
2019-03-30T10:34:16.051Z,1018.31
2019-03-30T10:35:15.962Z,1018.35
2019-03-30T10:36:15.887Z,1018.39
2019-03-30T10:37:15.813Z,1018.31
2019-03-30T10:38:15.725Z,1018.39
2019-03-30T10:39:15.650Z,1018.39
2019-03-30T10:40:15.575Z,1018.42
2019-03-30T10:41:15.488Z,1018.37
2019-03-30T10:42:15.414Z,1018.35
2019-03-30T10:43:15.338Z,1018.38
2019-03-30T10:44:15.265Z,1018.33
2019-03-30T10:45:15.176Z,1018.25
2019-03-30T10:46:15.100Z,1018.34
2019-03-30T10:47:15.026Z,1018.25
2019-03-30T10:48:14.939Z,1018.23
2019-03-30T10:49:14.946Z,1018.30
2019-03-30T10:50:14.795Z,1018.23
2019-03-30T10:51:14.713Z,1018.24
2019-03-30T10:52:14.630Z,1018.27
2019-03-30T10:53:14.553Z,1018.29
2019-03-30T10:54:14.477Z,1018.24
2019-03-30T10:55:14.390Z,1018.08
2019-03-30T10:56:14.315Z,1018.05
2019-03-30T10:57:14.245Z,1018.08
2019-03-30T10:58:14.158Z,1018.03
2019-03-30T10:59:14.077Z,1018.08
2019-03-30T11:00:14.003Z,1018.03
2019-03-30T11:01:13.940Z,1018.06
2019-03-30T11:02:13.867Z,1018.12
2019-03-30T11:03:13.766Z,1017.97
2019-03-30T11:04:13.694Z,1018.00
2019-03-30T11:05:13.615Z,1017.92
2019-03-30T11:06:13.543Z,1017.89
2019-03-30T11:07:13.465Z,1017.86
2019-03-30T11:08:13.462Z,1017.88
2019-03-30T11:09:13.306Z,1017.84
2019-03-30T11:10:13.229Z,1017.76
2019-03-30T11:11:13.153Z,1017.72
2019-03-30T11:12:13.066Z,1017.81
2019-03-30T11:13:12.992Z,1017.79
2019-03-30T11:14:12.917Z,1017.81
2019-03-30T11:15:12.842Z,1017.86
2019-03-30T11:16:12.775Z,1017.81
2019-03-30T11:17:12.694Z,1017.81
2019-03-30T11:18:12.603Z,1017.82
2019-03-30T11:19:12.529Z,1017.85
2019-03-30T11:20:12.455Z,1017.83
2019-03-30T11:21:12.392Z,1017.81
2019-03-30T11:22:12.306Z,1017.74
2019-03-30T11:23:12.218Z,1017.81
2019-03-30T11:24:12.145Z,1017.83
2019-03-30T11:25:12.067Z,1017.79
2019-03-30T11:26:11.993Z,1017.81
2019-03-30T11:27:11.918Z,1017.81
2019-03-30T11:28:11.842Z,1017.78
2019-03-30T11:29:11.774Z,1017.79
2019-03-30T11:30:11.693Z,1017.72
2019-03-30T11:31:11.624Z,1017.68
2019-03-30T11:32:11.544Z,1017.69
2019-03-30T11:33:11.479Z,1017.65
2019-03-30T11:34:11.406Z,1017.62
2019-03-30T11:35:11.331Z,1017.65
2019-03-30T11:36:11.255Z,1017.65
2019-03-30T11:37:11.181Z,1017.64
2019-03-30T11:38:11.105Z,1017.62
2019-03-30T11:39:11.045Z,1017.60
2019-03-30T11:40:10.975Z,1017.55
2019-03-30T11:41:10.899Z,1017.58
2019-03-30T11:42:10.820Z,1017.58
2019-03-30T11:43:10.756Z,1017.53
2019-03-30T11:44:10.681Z,1017.50
2019-03-30T11:45:10.606Z,1017.54
2019-03-30T11:46:10.532Z,1017.52
2019-03-30T11:47:10.470Z,1017.49
2019-03-30T11:48:10.400Z,1017.44
2019-03-30T11:49:10.324Z,1017.43
2019-03-30T11:50:10.257Z,1017.39
2019-03-30T11:51:10.182Z,1017.44
2019-03-30T11:52:10.122Z,1017.39
2019-03-30T11:53:10.047Z,1017.29
2019-03-30T11:54:09.971Z,1017.32
2019-03-30T11:55:21.045Z,1017.27
2019-03-30T11:56:09.834Z,1017.29
2019-03-30T11:57:09.759Z,1017.29
2019-03-30T11:58:09.695Z,1017.25
2019-03-30T11:59:09.621Z,1017.23
2019-03-30T12:00:09.558Z,1017.15
2019-03-30T12:01:09.484Z,1017.13
2019-03-30T12:02:09.410Z,1017.12
2019-03-30T12:03:09.347Z,1017.09
2019-03-30T12:04:09.272Z,1017.07